createdAt,value
2022-09-30T22:32:34.568Z,68.33
2022-09-30T22:33:33.659Z,68.81
2022-09-30T22:34:34.259Z,69.20
2022-09-30T22:35:33.819Z,69.45
2022-09-30T22:36:33.551Z,69.52
2022-09-30T22:37:45.036Z,69.46
2022-09-30T22:38:33.980Z,69.34
2022-09-30T22:39:34.104Z,69.17
2022-09-30T22:40:34.171Z,68.95
2022-09-30T22:41:33.429Z,68.76
2022-09-30T22:42:39.771Z,68.55
2022-09-30T22:43:33.687Z,68.39
2022-09-30T22:44:33.698Z,68.20
2022-09-30T22:45:33.796Z,68.01
2022-09-30T22:46:33.268Z,67.88
2022-09-30T22:47:33.119Z,67.74
2022-09-30T22:48:40.795Z,67.61
2022-09-30T22:49:55.404Z,67.48
2022-09-30T22:50:33.630Z,67.36
2022-09-30T22:51:39.707Z,67.29
2022-09-30T22:52:33.372Z,67.20
2022-09-30T22:53:34.677Z,67.12
2022-09-30T22:54:39.720Z,67.04
2022-09-30T22:55:33.486Z,66.97
2022-09-30T22:56:33.797Z,66.92
2022-09-30T22:57:32.959Z,66.86
2022-09-30T22:58:34.199Z,66.79
2022-09-30T22:59:34.337Z,66.75
2022-09-30T23:00:39.735Z,66.69
2022-09-30T23:01:33.982Z,66.64
2022-09-30T23:02:33.840Z,66.60
2022-09-30T23:03:33.481Z,66.56
2022-09-30T23:04:33.534Z,66.53
2022-09-30T23:05:32.909Z,66.49
2022-09-30T23:06:40.119Z,66.46
2022-09-30T23:07:33.468Z,66.44
2022-09-30T23:08:34.098Z,66.40
2022-09-30T23:09:33.824Z,66.38
2022-09-30T23:10:32.892Z,66.37
2022-09-30T23:11:33.882Z,66.36
2022-09-30T23:12:41.367Z,66.33
2022-09-30T23:13:34.559Z,66.30
2022-09-30T23:14:35.157Z,66.29
2022-09-30T23:15:32.832Z,66.27
2022-09-30T23:16:36.238Z,66.26
2022-09-30T23:17:39.676Z,66.25
2022-09-30T23:18:34.003Z,66.23
2022-09-30T23:19:32.849Z,66.23
2022-09-30T23:20:33.069Z,66.21
2022-09-30T23:21:34.634Z,66.19
2022-09-30T23:22:39.503Z,66.21
2022-09-30T23:23:32.654Z,66.19
2022-09-30T23:24:34.448Z,66.16
2022-09-30T23:25:32.815Z,66.16
2022-09-30T23:26:33.083Z,66.13
2022-09-30T23:27:54.530Z,66.12
2022-09-30T23:28:32.603Z,66.10
2022-09-30T23:29:36.254Z,66.08
2022-09-30T23:30:32.616Z,66.06
2022-09-30T23:31:33.371Z,66.05
2022-09-30T23:32:34.510Z,66.01
2022-09-30T23:33:42.456Z,65.99
2022-09-30T23:34:33.090Z,65.95
2022-09-30T23:35:33.235Z,65.93
2022-09-30T23:36:33.037Z,65.91
2022-09-30T23:37:34.091Z,65.90
2022-09-30T23:38:32.783Z,65.87
2022-09-30T23:39:39.439Z,65.85
2022-09-30T23:40:32.498Z,65.81
2022-09-30T23:41:33.401Z,65.80
2022-09-30T23:42:33.606Z,65.78
2022-09-30T23:43:33.800Z,65.75
2022-09-30T23:44:39.483Z,65.72
2022-09-30T23:45:45.994Z,65.74
2022-09-30T23:46:32.648Z,65.74
2022-09-30T23:47:32.937Z,65.73
2022-09-30T23:48:41.820Z,65.71
2022-09-30T23:49:32.490Z,65.68
2022-09-30T23:50:39.498Z,65.66
2022-09-30T23:51:32.736Z,65.67
2022-09-30T23:52:32.531Z,65.65
2022-09-30T23:53:32.685Z,65.63
2022-09-30T23:54:32.374Z,65.63
2022-09-30T23:55:32.988Z,65.62
2022-09-30T23:56:38.641Z,65.63
2022-09-30T23:57:47.074Z,65.62
2022-09-30T23:58:32.135Z,65.59
2022-09-30T23:59:32.239Z,65.59
